sensor_id;sensor_type;location;lat;lon;timestamp;pressure;altitude;pressure_sealevel;temperature;humidity
45763;BME280;37512;52.408;13.356;2022-08-03T00:02:49;101154.50;;;18.86;65.78
45763;BME280;37512;52.408;13.356;2022-08-03T00:06:51;101152.44;;;18.90;65.87
45763;BME280;37512;52.408;13.356;2022-08-03T00:10:52;101152.06;;;18.88;65.95
45763;BME280;37512;52.408;13.356;2022-08-03T00:14:53;101146.88;;;18.83;66.72
45763;BME280;37512;52.408;13.356;2022-08-03T00:18:55;101140.84;;;18.81;66.85
45763;BME280;37512;52.408;13.356;2022-08-03T00:22:56;101139.69;;;18.75;68.13
45763;BME280;37512;52.408;13.356;2022-08-03T00:26:58;101140.53;;;18.65;67.98
45763;BME280;37512;52.408;13.356;2022-08-03T00:30:59;101138.91;;;18.67;68.10
45763;BME280;37512;52.408;13.356;2022-08-03T00:35:01;101130.91;;;18.58;68.85
45763;BME280;37512;52.408;13.356;2022-08-03T00:39:09;101124.53;;;18.54;68.81
45763;BME280;37512;52.408;13.356;2022-08-03T00:43:10;101135.81;;;18.47;69.06
45763;BME280;37512;52.408;13.356;2022-08-03T00:47:12;101122.63;;;18.41;69.81
45763;BME280;37512;52.408;13.356;2022-08-03T00:51:13;101119.38;;;18.46;68.93
45763;BME280;37512;52.408;13.356;2022-08-03T00:55:15;101115.31;;;18.50;68.96
45763;BME280;37512;52.408;13.356;2022-08-03T00:59:17;101118.53;;;18.52;68.68
45763;BME280;37512;52.408;13.356;2022-08-03T01:03:18;101123.31;;;18.55;68.19
45763;BME280;37512;52.408;13.356;2022-08-03T01:07:40;101121.78;;;18.44;69.58
45763;BME280;37512;52.408;13.356;2022-08-03T01:11:54;101125.81;;;18.39;67.11
45763;BME280;37512;52.408;13.356;2022-08-03T01:16:07;101122.47;;;18.66;66.95
45763;BME280;37512;52.408;13.356;2022-08-03T01:20:11;101112.75;;;18.74;67.07
45763;BME280;37512;52.408;13.356;2022-08-03T01:32:53;101108.47;;;18.51;67.34
45763;BME280;37512;52.408;13.356;2022-08-03T01:37:05;101097.88;;;18.80;66.88
45763;BME280;37512;52.408;13.356;2022-08-03T01:41:33;101099.09;;;18.76;67.02
45763;BME280;37512;52.408;13.356;2022-08-03T01:45:36;101094.28;;;18.80;66.93
45763;BME280;37512;52.408;13.356;2022-08-03T01:49:42;101102.28;;;18.81;67.47
45763;BME280;37512;52.408;13.356;2022-08-03T01:53:47;101085.88;;;18.73;67.70
45763;BME280;37512;52.408;13.356;2022-08-03T01:57:50;101092.97;;;18.95;67.53
45763;BME280;37512;52.408;13.356;2022-08-03T02:02:07;101090.38;;;18.59;67.92
45763;BME280;37512;52.408;13.356;2022-08-03T02:06:32;101087.75;;;18.90;67.34
45763;BME280;37512;52.408;13.356;2022-08-03T02:10:56;101093.31;;;18.97;66.58
45763;BME280;37512;52.408;13.356;2022-08-03T02:14:59;101095.72;;;19.02;66.83
45763;BME280;37512;52.408;13.356;2022-08-03T02:19:04;101094.09;;;19.01;66.58
45763;BME280;37512;52.408;13.356;2022-08-03T02:23:07;101085.97;;;19.14;66.58
45763;BME280;37512;52.408;13.356;2022-08-03T02:27:19;101093.69;;;19.03;67.03
45763;BME280;37512;52.408;13.356;2022-08-03T02:31:25;101090.38;;;19.15;66.59
45763;BME280;37512;52.408;13.356;2022-08-03T02:35:29;101091.63;;;19.11;66.51
45763;BME280;37512;52.408;13.356;2022-08-03T02:39:33;101090.84;;;19.07;66.51
45763;BME280;37512;52.408;13.356;2022-08-03T02:43:36;101094.81;;;19.13;66.06
45763;BME280;37512;52.408;13.356;2022-08-03T02:48:02;101090.38;;;19.15;66.14
45763;BME280;37512;52.408;13.356;2022-08-03T02:52:04;101092.38;;;19.15;65.90
45763;BME280;37512;52.408;13.356;2022-08-03T02:56:17;101089.50;;;19.26;65.13
45763;BME280;37512;52.408;13.356;2022-08-03T03:00:19;101092.72;;;19.24;65.93
45763;BME280;37512;52.408;13.356;2022-08-03T03:04:28;101100.88;;;19.11;65.92
45763;BME280;37512;52.408;13.356;2022-08-03T03:08:34;101096.91;;;19.01;65.77
45763;BME280;37512;52.408;13.356;2022-08-03T03:12:39;101098.09;;;19.04;65.99
45763;BME280;37512;52.408;13.356;2022-08-03T03:16:42;101101.41;;;18.95;65.30
45763;BME280;37512;52.408;13.356;2022-08-03T03:20:51;101095.47;;;18.79;66.13
45763;BME280;37512;52.408;13.356;2022-08-03T03:24:53;101094.16;;;18.94;65.91
45763;BME280;37512;52.408;13.356;2022-08-03T03:28:56;101099.91;;;18.80;66.33
45763;BME280;37512;52.408;13.356;2022-08-03T03:32:58;101096.44;;;18.51;66.82
45763;BME280;37512;52.408;13.356;2022-08-03T03:37:00;101089.53;;;18.63;66.53
45763;BME280;37512;52.408;13.356;2022-08-03T03:41:02;101097.59;;;18.60;67.24
45763;BME280;37512;52.408;13.356;2022-08-03T03:45:07;101094.88;;;18.46;67.93
45763;BME280;37512;52.408;13.356;2022-08-03T03:49:10;101100.88;;;18.48;67.98
45763;BME280;37512;52.408;13.356;2022-08-03T03:53:13;101101.72;;;18.38;67.86
45763;BME280;37512;52.408;13.356;2022-08-03T03:57:16;101094.13;;;18.31;67.51
45763;BME280;37512;52.408;13.356;2022-08-03T04:01:17;101086.88;;;18.41;67.73
45763;BME280;37512;52.408;13.356;2022-08-03T04:05:19;101090.47;;;18.45;67.79
45763;BME280;37512;52.408;13.356;2022-08-03T04:09:46;101088.00;;;18.54;67.22
45763;BME280;37512;52.408;13.356;2022-08-03T04:14:18;101093.59;;;18.58;66.11
45763;BME280;37512;52.408;13.356;2022-08-03T04:18:21;101091.09;;;18.71;66.20
45763;BME280;37512;52.408;13.356;2022-08-03T04:22:28;101091.06;;;18.74;65.76
45763;BME280;37512;52.408;13.356;2022-08-03T04:26:35;101094.03;;;18.53;65.77
45763;BME280;37512;52.408;13.356;2022-08-03T04:30:39;101100.88;;;18.48;65.93
45763;BME280;37512;52.408;13.356;2022-08-03T04:34:48;101103.78;;;18.30;66.31
45763;BME280;37512;52.408;13.356;2022-08-03T04:39:03;101104.97;;;18.33;65.38
45763;BME280;37512;52.408;13.356;2022-08-03T04:43:07;101111.69;;;18.53;64.94
45763;BME280;37512;52.408;13.356;2022-08-03T04:47:09;101114.34;;;18.82;64.00
45763;BME280;37512;52.408;13.356;2022-08-03T04:51:11;101115.47;;;18.95;63.87
45763;BME280;37512;52.408;13.356;2022-08-03T04:55:30;101117.66;;;19.22;62.95
45763;BME280;37512;52.408;13.356;2022-08-03T04:59:32;101116.50;;;19.16;63.24
45763;BME280;37512;52.408;13.356;2022-08-03T05:03:39;101116.88;;;19.18;62.97
45763;BME280;37512;52.408;13.356;2022-08-03T05:07:41;101110.44;;;19.21;62.67
45763;BME280;37512;52.408;13.356;2022-08-03T05:11:44;101116.38;;;19.30;60.54
45763;BME280;37512;52.408;13.356;2022-08-03T05:15:45;101110.63;;;19.44;60.48
45763;BME280;37512;52.408;13.356;2022-08-03T05:19:47;101121.03;;;19.48;59.14
45763;BME280;37512;52.408;13.356;2022-08-03T05:23:48;101120.84;;;19.65;60.75
45763;BME280;37512;52.408;13.356;2022-08-03T05:27:50;101121.38;;;19.95;59.47
45763;BME280;37512;52.408;13.356;2022-08-03T05:31:51;101124.88;;;20.06;57.48
45763;BME280;37512;52.408;13.356;2022-08-03T05:35:53;101133.69;;;20.12;57.90
45763;BME280;37512;52.408;13.356;2022-08-03T05:40:04;101131.34;;;20.37;56.92
45763;BME280;37512;52.408;13.356;2022-08-03T05:44:06;101131.94;;;20.52;56.36
45763;BME280;37512;52.408;13.356;2022-08-03T05:48:07;101139.00;;;20.67;56.10
45763;BME280;37512;52.408;13.356;2022-08-03T05:52:09;101138.75;;;20.85;55.63
45763;BME280;37512;52.408;13.356;2022-08-03T05:56:23;101143.25;;;21.06;53.26
45763;BME280;37512;52.408;13.356;2022-08-03T06:00:25;101148.19;;;21.26;51.86
45763;BME280;37512;52.408;13.356;2022-08-03T06:04:27;101144.72;;;21.42;52.18
45763;BME280;37512;52.408;13.356;2022-08-03T06:08:29;101144.09;;;21.54;51.29
45763;BME280;37512;52.408;13.356;2022-08-03T06:12:30;101150.84;;;21.60;51.32
45763;BME280;37512;52.408;13.356;2022-08-03T06:16:36;101148.41;;;21.82;48.98
45763;BME280;37512;52.408;13.356;2022-08-03T06:20:37;101136.53;;;21.91;49.46
45763;BME280;37512;52.408;13.356;2022-08-03T06:24:40;101130.91;;;22.11;49.22
45763;BME280;37512;52.408;13.356;2022-08-03T06:28:53;101135.06;;;22.26;49.19
45763;BME280;37512;52.408;13.356;2022-08-03T06:32:55;101134.03;;;22.37;48.19
45763;BME280;37512;52.408;13.356;2022-08-03T06:36:57;101134.28;;;22.62;48.01
45763;BME280;37512;52.408;13.356;2022-08-03T06:41:02;101135.19;;;22.75;48.17
45763;BME280;37512;52.408;13.356;2022-08-03T06:45:05;101136.97;;;22.86;47.79
45763;BME280;37512;52.408;13.356;2022-08-03T06:49:07;101144.25;;;23.03;47.74
45763;BME280;37512;52.408;13.356;2022-08-03T06:53:09;101136.84;;;23.26;46.83
45763;BME280;37512;52.408;13.356;2022-08-03T06:57:21;101136.50;;;23.40;46.02
45763;BME280;37512;52.408;13.356;2022-08-03T07:01:23;101127.97;;;23.56;44.66
45763;BME280;37512;52.408;13.356;2022-08-03T07:05:24;101140.16;;;23.86;44.09
45763;BME280;37512;52.408;13.356;2022-08-03T07:09:26;101137.81;;;23.97;44.81
45763;BME280;37512;52.408;13.356;2022-08-03T07:13:28;101137.09;;;24.23;43.87
45763;BME280;37512;52.408;13.356;2022-08-03T07:17:31;101136.41;;;24.31;44.08
45763;BME280;37512;52.408;13.356;2022-08-03T07:21:33;101133.13;;;24.33;44.01
45763;BME280;37512;52.408;13.356;2022-08-03T07:25:35;101137.22;;;24.45;42.93
45763;BME280;37512;52.408;13.356;2022-08-03T07:29:36;101140.22;;;24.54;43.24
45763;BME280;37512;52.408;13.356;2022-08-03T07:33:38;101140.94;;;24.71;42.91
45763;BME280;37512;52.408;13.356;2022-08-03T07:37:39;101138.44;;;24.86;43.05
45763;BME280;37512;52.408;13.356;2022-08-03T07:41:54;101139.91;;;25.16;42.64
45763;BME280;37512;52.408;13.356;2022-08-03T07:45:55;101139.56;;;25.14;41.90
45763;BME280;37512;52.408;13.356;2022-08-03T07:49:57;101137.38;;;25.31;41.44
45763;BME280;37512;52.408;13.356;2022-08-03T07:53:59;101144.13;;;25.59;41.82
45763;BME280;37512;52.408;13.356;2022-08-03T07:58:09;101139.41;;;25.78;41.11
45763;BME280;37512;52.408;13.356;2022-08-03T08:02:24;101137.81;;;25.55;40.84
45763;BME280;37512;52.408;13.356;2022-08-03T08:06:25;101132.13;;;25.77;41.49
45763;BME280;37512;52.408;13.356;2022-08-03T08:10:27;101144.13;;;25.59;40.62
45763;BME280;37512;52.408;13.356;2022-08-03T08:14:28;101137.81;;;26.12;41.16
45763;BME280;37512;52.408;13.356;2022-08-03T08:18:30;101138.53;;;26.03;39.88
45763;BME280;37512;52.408;13.356;2022-08-03T08:22:32;101145.94;;;26.22;40.29
45763;BME280;37512;52.408;13.356;2022-08-03T08:26:34;101138.78;;;26.18;39.88
45763;BME280;37512;52.408;13.356;2022-08-03T08:30:35;101139.91;;;26.42;39.47
45763;BME280;37512;52.408;13.356;2022-08-03T08:34:37;101134.31;;;26.61;39.00
45763;BME280;37512;52.408;13.356;2022-08-03T08:38:38;101137.19;;;26.61;38.67
45763;BME280;37512;52.408;13.356;2022-08-03T08:42:43;101129.63;;;26.67;38.68
45763;BME280;37512;52.408;13.356;2022-08-03T08:47:01;101132.22;;;26.83;37.94
45763;BME280;37512;52.408;13.356;2022-08-03T08:51:04;101125.28;;;26.94;37.07
45763;BME280;37512;52.408;13.356;2022-08-03T08:55:07;101127.88;;;27.10;36.76
45763;BME280;37512;52.408;13.356;2022-08-03T08:59:09;101128.75;;;27.38;36.42
45763;BME280;37512;52.408;13.356;2022-08-03T09:03:11;101128.75;;;27.38;35.91
45763;BME280;37512;52.408;13.356;2022-08-03T09:07:22;101133.47;;;27.32;36.33
45763;BME280;37512;52.408;13.356;2022-08-03T09:11:25;101125.78;;;27.51;35.81
45763;BME280;37512;52.408;13.356;2022-08-03T09:15:46;101117.84;;;27.83;36.49
45763;BME280;37512;52.408;13.356;2022-08-03T09:20:05;101116.88;;;28.23;34.55
45763;BME280;37512;52.408;13.356;2022-08-03T09:24:10;101110.44;;;28.65;34.65
45763;BME280;37512;52.408;13.356;2022-08-03T09:28:35;101109.66;;;28.46;34.89
45763;BME280;37512;52.408;13.356;2022-08-03T09:33:04;101118.44;;;28.33;34.84
45763;BME280;37512;52.408;13.356;2022-08-03T09:37:14;101112.06;;;28.38;34.47
45763;BME280;37512;52.408;13.356;2022-08-03T09:41:17;101111.38;;;29.28;33.59
45763;BME280;37512;52.408;13.356;2022-08-03T09:45:26;101114.53;;;29.30;31.83
45763;BME280;37512;52.408;13.356;2022-08-03T09:49:28;101114.88;;;28.66;33.05
45763;BME280;37512;52.408;13.356;2022-08-03T09:53:30;101107.09;;;28.99;32.87
45763;BME280;37512;52.408;13.356;2022-08-03T09:57:32;101107.34;;;29.98;31.43
45763;BME280;37512;52.408;13.356;2022-08-03T10:01:34;101110.97;;;29.84;31.75
45763;BME280;37512;52.408;13.356;2022-08-03T10:05:36;101102.34;;;29.69;31.49
45763;BME280;37512;52.408;13.356;2022-08-03T10:09:55;101101.41;;;30.01;31.29
45763;BME280;37512;52.408;13.356;2022-08-03T10:13:57;101097.56;;;30.19;31.35
45763;BME280;37512;52.408;13.356;2022-08-03T10:18:01;101086.81;;;30.14;31.20
45763;BME280;37512;52.408;13.356;2022-08-03T10:22:11;101090.38;;;30.09;31.01
45763;BME280;37512;52.408;13.356;2022-08-03T10:26:17;101088.66;;;29.88;31.93
45763;BME280;37512;52.408;13.356;2022-08-03T10:30:23;101089.56;;;30.68;31.27
45763;BME280;37512;52.408;13.356;2022-08-03T10:34:33;101080.25;;;31.09;30.36
45763;BME280;37512;52.408;13.356;2022-08-03T10:38:50;101079.28;;;31.32;29.90
45763;BME280;37512;52.408;13.356;2022-08-03T10:42:57;101068.06;;;30.93;30.41
45763;BME280;37512;52.408;13.356;2022-08-03T10:46:59;101065.56;;;31.21;30.11
45763;BME280;37512;52.408;13.356;2022-08-03T10:51:02;101068.59;;;30.77;30.71
45763;BME280;37512;52.408;13.356;2022-08-03T10:55:31;101060.84;;;31.85;29.73
45763;BME280;37512;52.408;13.356;2022-08-03T11:08:17;101055.13;;;32.12;29.88
45763;BME280;37512;52.408;13.356;2022-08-03T11:12:24;101045.78;;;31.23;30.64
45763;BME280;37512;52.408;13.356;2022-08-03T11:16:34;101043.09;;;32.45;29.21
45763;BME280;37512;52.408;13.356;2022-08-03T11:20:57;101039.09;;;32.31;29.52
45763;BME280;37512;52.408;13.356;2022-08-03T11:24:59;101045.69;;;32.05;30.15
45763;BME280;37512;52.408;13.356;2022-08-03T11:29:26;101047.50;;;32.40;29.24
45763;BME280;37512;52.408;13.356;2022-08-03T11:33:30;101041.16;;;31.73;30.72
45763;BME280;37512;52.408;13.356;2022-08-03T11:37:32;101041.78;;;32.40;29.48
45763;BME280;37512;52.408;13.356;2022-08-03T11:41:36;101033.69;;;32.82;29.38
45763;BME280;37512;52.408;13.356;2022-08-03T11:49:58;101036.44;;;33.85;27.88
45763;BME280;37512;52.408;13.356;2022-08-03T11:54:04;101037.53;;;33.99;28.18
45763;BME280;37512;52.408;13.356;2022-08-03T11:58:06;101040.38;;;34.77;27.31
45763;BME280;37512;52.408;13.356;2022-08-03T12:02:27;101024.72;;;34.22;28.12
45763;BME280;37512;52.408;13.356;2022-08-03T12:06:29;101024.09;;;34.86;26.39
45763;BME280;37512;52.408;13.356;2022-08-03T12:10:30;101026.34;;;35.10;26.67
45763;BME280;37512;52.408;13.356;2022-08-03T12:14:32;101021.66;;;35.12;26.47
45763;BME280;37512;52.408;13.356;2022-08-03T12:18:57;101027.41;;;35.12;26.81
45763;BME280;37512;52.408;13.356;2022-08-03T12:23:04;101020.72;;;34.70;26.93
45763;BME280;37512;52.408;13.356;2022-08-03T12:27:05;101020.50;;;34.51;27.37
45763;BME280;37512;52.408;13.356;2022-08-03T12:31:07;101007.25;;;35.01;26.17
45763;BME280;37512;52.408;13.356;2022-08-03T12:35:22;101006.03;;;34.80;27.14
45763;BME280;37512;52.408;13.356;2022-08-03T12:39:26;101000.50;;;33.41;27.94
45763;BME280;37512;52.408;13.356;2022-08-03T12:43:31;101003.66;;;33.43;28.02
45763;BME280;37512;52.408;13.356;2022-08-03T12:47:57;100989.41;;;35.14;27.22
45763;BME280;37512;52.408;13.356;2022-08-03T12:51:59;100980.63;;;35.78;25.87
45763;BME280;37512;52.408;13.356;2022-08-03T12:56:05;100985.16;;;33.83;27.36
45763;BME280;37512;52.408;13.356;2022-08-03T13:00:11;100980.28;;;34.93;27.14
45763;BME280;37512;52.408;13.356;2022-08-03T13:04:34;100991.50;;;35.13;26.79
45763;BME280;37512;52.408;13.356;2022-08-03T13:08:36;100986.34;;;35.84;25.87
45763;BME280;37512;52.408;13.356;2022-08-03T13:12:46;100982.53;;;35.70;25.70
45763;BME280;37512;52.408;13.356;2022-08-03T13:16:48;100976.69;;;35.34;26.76
45763;BME280;37512;52.408;13.356;2022-08-03T13:20:49;100970.47;;;35.66;25.82
45763;BME280;37512;52.408;13.356;2022-08-03T13:24:53;100976.41;;;36.39;25.17
45763;BME280;37512;52.408;13.356;2022-08-03T13:28:58;100972.03;;;35.97;24.75
45763;BME280;37512;52.408;13.356;2022-08-03T13:32:59;100974.84;;;35.36;26.22
45763;BME280;37512;52.408;13.356;2022-08-03T13:37:01;100969.06;;;35.78;25.47
45763;BME280;37512;52.408;13.356;2022-08-03T13:41:10;100970.63;;;35.43;25.63
45763;BME280;37512;52.408;13.356;2022-08-03T13:45:16;100959.00;;;36.70;24.65
45763;BME280;37512;52.408;13.356;2022-08-03T13:49:17;100954.94;;;36.54;25.17
45763;BME280;37512;52.408;13.356;2022-08-03T13:53:19;100955.81;;;34.47;27.01
45763;BME280;37512;52.408;13.356;2022-08-03T13:57:21;100952.53;;;36.33;25.18
45763;BME280;37512;52.408;13.356;2022-08-03T14:01:42;100962.38;;;34.30;27.00
45763;BME280;37512;52.408;13.356;2022-08-03T14:05:55;100951.34;;;36.23;25.65
45763;BME280;37512;52.408;13.356;2022-08-03T14:09:56;100950.47;;;36.34;24.63
45763;BME280;37512;52.408;13.356;2022-08-03T14:13:58;100935.50;;;36.98;24.49
45763;BME280;37512;52.408;13.356;2022-08-03T14:17:59;100931.75;;;36.16;25.01
45763;BME280;37512;52.408;13.356;2022-08-03T14:22:02;100938.81;;;36.39;24.95
45763;BME280;37512;52.408;13.356;2022-08-03T14:26:07;100929.94;;;34.94;26.86
45763;BME280;37512;52.408;13.356;2022-08-03T14:30:10;100934.56;;;35.55;26.57
45763;BME280;37512;52.408;13.356;2022-08-03T14:34:12;100928.28;;;35.57;26.12
45763;BME280;37512;52.408;13.356;2022-08-03T14:38:13;100922.31;;;34.38;27.26
45763;BME280;37512;52.408;13.356;2022-08-03T14:42:15;100928.72;;;36.27;26.18
45763;BME280;37512;52.408;13.356;2022-08-03T14:46:16;100922.94;;;37.98;23.93
45763;BME280;37512;52.408;13.356;2022-08-03T14:50:18;100921.38;;;36.26;25.00
45763;BME280;37512;52.408;13.356;2022-08-03T14:54:39;100917.69;;;36.75;25.08
45763;BME280;37512;52.408;13.356;2022-08-03T14:58:41;100918.00;;;36.47;25.90
45763;BME280;37512;52.408;13.356;2022-08-03T15:02:42;100919.03;;;35.28;26.87
45763;BME280;37512;52.408;13.356;2022-08-03T15:06:44;100910.13;;;35.68;25.82
45763;BME280;37512;52.408;13.356;2022-08-03T15:10:52;100905.16;;;36.85;25.26
45763;BME280;37512;52.408;13.356;2022-08-03T15:14:54;100902.00;;;36.21;25.53
45763;BME280;37512;52.408;13.356;2022-08-03T15:18:56;100898.38;;;36.15;25.97
45763;BME280;37512;52.408;13.356;2022-08-03T15:22:58;100886.19;;;35.37;26.33
45763;BME280;37512;52.408;13.356;2022-08-03T15:26:59;100891.66;;;36.01;26.62
45763;BME280;37512;52.408;13.356;2022-08-03T15:31:06;100885.88;;;37.32;24.32
45763;BME280;37512;52.408;13.356;2022-08-03T15:35:08;100888.06;;;38.70;23.57
45763;BME280;37512;52.408;13.356;2022-08-03T15:39:09;100892.94;;;37.95;24.40
45763;BME280;37512;52.408;13.356;2022-08-03T15:43:11;100881.41;;;38.22;23.79
45763;BME280;37512;52.408;13.356;2022-08-03T15:47:12;100889.06;;;38.06;24.35
45763;BME280;37512;52.408;13.356;2022-08-03T15:51:14;100889.72;;;37.99;24.46
45763;BME280;37512;52.408;13.356;2022-08-03T15:55:15;100888.03;;;36.25;25.63
45763;BME280;37512;52.408;13.356;2022-08-03T15:59:17;100876.75;;;35.36;26.38
45763;BME280;37512;52.408;13.356;2022-08-03T16:03:20;100879.53;;;36.76;25.81
45763;BME280;37512;52.408;13.356;2022-08-03T16:07:21;100872.47;;;36.03;25.97
45763;BME280;37512;52.408;13.356;2022-08-03T16:12:03;100874.00;;;36.35;26.06
45763;BME280;37512;52.408;13.356;2022-08-03T16:16:04;100871.00;;;36.21;26.30
45763;BME280;37512;52.408;13.356;2022-08-03T16:20:08;100872.91;;;35.89;26.78
45763;BME280;37512;52.408;13.356;2022-08-03T16:24:30;100865.47;;;36.23;25.96
45763;BME280;37512;52.408;13.356;2022-08-03T16:28:32;100867.06;;;36.43;26.35
45763;BME280;37512;52.408;13.356;2022-08-03T16:32:35;100863.97;;;36.17;26.48
45763;BME280;37512;52.408;13.356;2022-08-03T16:36:38;100857.50;;;36.73;25.79
45763;BME280;37512;52.408;13.356;2022-08-03T16:40:40;100861.06;;;37.17;25.11
45763;BME280;37512;52.408;13.356;2022-08-03T16:44:41;100866.84;;;37.36;25.15
45763;BME280;37512;52.408;13.356;2022-08-03T16:48:43;100864.84;;;35.15;26.35
45763;BME280;37512;52.408;13.356;2022-08-03T16:52:44;100858.59;;;36.70;25.26
45763;BME280;37512;52.408;13.356;2022-08-03T16:56:48;100857.78;;;37.26;25.49
45763;BME280;37512;52.408;13.356;2022-08-03T17:00:50;100860.75;;;34.94;27.20
45763;BME280;37512;52.408;13.356;2022-08-03T17:04:52;100866.47;;;36.26;26.42
45763;BME280;37512;52.408;13.356;2022-08-03T17:08:54;100865.28;;;35.61;26.92
45763;BME280;37512;52.408;13.356;2022-08-03T17:12:55;100866.00;;;35.97;26.73
45763;BME280;37512;52.408;13.356;2022-08-03T17:16:58;100864.66;;;34.44;28.00
45763;BME280;37512;52.408;13.356;2022-08-03T17:21:03;100867.19;;;35.17;27.28
45763;BME280;37512;52.408;13.356;2022-08-03T17:25:09;100875.75;;;34.87;27.69
45763;BME280;37512;52.408;13.356;2022-08-03T17:29:22;100877.34;;;33.95;28.65
45763;BME280;37512;52.408;13.356;2022-08-03T17:33:30;100878.13;;;33.45;29.51
45763;BME280;37512;52.408;13.356;2022-08-03T17:37:36;100882.19;;;32.82;30.47
45763;BME280;37512;52.408;13.356;2022-08-03T17:41:58;100869.81;;;33.64;29.41
45763;BME280;37512;52.408;13.356;2022-08-03T17:46:04;100883.13;;;33.67;29.70
45763;BME280;37512;52.408;13.356;2022-08-03T17:50:11;100878.66;;;33.38;29.86
45763;BME280;37512;52.408;13.356;2022-08-03T17:55:07;100879.97;;;33.37;29.75
45763;BME280;37512;52.408;13.356;2022-08-03T17:59:54;100878.28;;;32.91;30.66
45763;BME280;37512;52.408;13.356;2022-08-03T18:04:02;100883.94;;;32.57;31.16
45763;BME280;37512;52.408;13.356;2022-08-03T18:08:26;100883.28;;;32.42;31.34
45763;BME280;37512;52.408;13.356;2022-08-03T18:12:42;100888.72;;;32.28;32.63
45763;BME280;37512;52.408;13.356;2022-08-03T18:17:00;100889.88;;;32.05;32.38
45763;BME280;37512;52.408;13.356;2022-08-03T18:21:03;100884.31;;;31.96;32.60
45763;BME280;37512;52.408;13.356;2022-08-03T18:25:09;100885.31;;;31.93;33.61
45763;BME280;37512;52.408;13.356;2022-08-03T18:29:13;100877.34;;;31.71;34.56
45763;BME280;37512;52.408;13.356;2022-08-03T18:33:17;100879.84;;;31.57;36.33
45763;BME280;37512;52.408;13.356;2022-08-03T18:37:43;100880.56;;;31.26;38.57
45763;BME280;37512;52.408;13.356;2022-08-03T18:41:52;100884.44;;;30.97;38.79
45763;BME280;37512;52.408;13.356;2022-08-03T18:45:59;100885.28;;;29.71;40.79
45763;BME280;37512;52.408;13.356;2022-08-03T18:54:35;100886.06;;;29.56;41.08
45763;BME280;37512;52.408;13.356;2022-08-03T18:59:14;100889.91;;;29.38;41.84
45763;BME280;37512;52.408;13.356;2022-08-03T19:03:34;100885.78;;;29.25;41.65
45763;BME280;37512;52.408;13.356;2022-08-03T19:07:57;100890.13;;;28.81;41.78
45763;BME280;37512;52.408;13.356;2022-08-03T19:12:21;100897.78;;;28.75;41.92
45763;BME280;37512;52.408;13.356;2022-08-03T19:16:34;100893.53;;;28.70;42.71
45763;BME280;37512;52.408;13.356;2022-08-03T19:20:39;100900.72;;;28.81;42.48
45763;BME280;37512;52.408;13.356;2022-08-03T19:24:47;100894.91;;;28.75;42.92
45763;BME280;37512;52.408;13.356;2022-08-03T19:28:55;100900.19;;;28.43;42.57
45763;BME280;37512;52.408;13.356;2022-08-03T19:32:58;100907.19;;;28.42;42.88
45763;BME280;37512;52.408;13.356;2022-08-03T19:37:01;100902.31;;;28.33;42.96
45763;BME280;37512;52.408;13.356;2022-08-03T19:41:04;100901.28;;;28.22;42.80
45763;BME280;37512;52.408;13.356;2022-08-03T19:45:08;100899.78;;;28.02;43.64
45763;BME280;37512;52.408;13.356;2022-08-03T19:49:15;100894.94;;;27.84;44.19
45763;BME280;37512;52.408;13.356;2022-08-03T19:53:21;100895.34;;;27.49;45.25
45763;BME280;37512;52.408;13.356;2022-08-03T19:57:37;100890.13;;;27.48;45.34
45763;BME280;37512;52.408;13.356;2022-08-03T20:01:38;100892.22;;;27.20;45.91
45763;BME280;37512;52.408;13.356;2022-08-03T20:05:52;100897.81;;;27.23;45.68
45763;BME280;37512;52.408;13.356;2022-08-03T20:09:55;100887.63;;;27.13;46.97
45763;BME280;37512;52.408;13.356;2022-08-03T20:13:57;100887.81;;;26.91;47.08
45763;BME280;37512;52.408;13.356;2022-08-03T20:18:00;100892.38;;;26.61;48.71
45763;BME280;37512;52.408;13.356;2022-08-03T20:22:01;100884.03;;;26.76;48.22
45763;BME280;37512;52.408;13.356;2022-08-03T20:26:05;100894.25;;;26.55;47.91
45763;BME280;37512;52.408;13.356;2022-08-03T20:30:10;100880.19;;;26.51;48.51
45763;BME280;37512;52.408;13.356;2022-08-03T20:34:12;100883.63;;;26.37;49.60
45763;BME280;37512;52.408;13.356;2022-08-03T20:38:18;100879.50;;;26.28;49.75
45763;BME280;37512;52.408;13.356;2022-08-03T20:42:19;100875.34;;;26.20;49.86
45763;BME280;37512;52.408;13.356;2022-08-03T20:46:22;100885.59;;;26.08;50.89
45763;BME280;37512;52.408;13.356;2022-08-03T20:50:39;100890.13;;;25.87;50.86
45763;BME280;37512;52.408;13.356;2022-08-03T20:54:44;100890.53;;;25.86;50.09
45763;BME280;37512;52.408;13.356;2022-08-03T20:58:50;100884.81;;;25.77;50.99
45763;BME280;37512;52.408;13.356;2022-08-03T21:02:54;100887.13;;;25.60;51.43
45763;BME280;37512;52.408;13.356;2022-08-03T21:07:02;100888.84;;;25.57;52.22
45763;BME280;37512;52.408;13.356;2022-08-03T21:11:17;100887.81;;;25.42;51.45
45763;BME280;37512;52.408;13.356;2022-08-03T21:15:25;100884.19;;;25.41;51.29
45763;BME280;37512;52.408;13.356;2022-08-03T21:19:49;100888.34;;;25.28;53.70
45763;BME280;37512;52.408;13.356;2022-08-03T21:23:53;100893.31;;;25.01;52.69
45763;BME280;37512;52.408;13.356;2022-08-03T21:27:55;100897.38;;;24.91;53.55
45763;BME280;37512;52.408;13.356;2022-08-03T21:31:58;100887.16;;;24.81;53.73
45763;BME280;37512;52.408;13.356;2022-08-03T21:36:01;100889.91;;;24.84;54.10
45763;BME280;37512;52.408;13.356;2022-08-03T21:40:04;100884.63;;;24.96;54.01